sensor_id;sensor_type;location;lat;lon;timestamp;pressure;altitude;pressure_sealevel;temperature;humidity
20444;BME280;10381;53.730;10.010;2023-05-16T00:03:35;100833.34;;;9.21;100.00
20444;BME280;10381;53.730;10.010;2023-05-16T00:07:37;100831.69;;;9.20;100.00
20444;BME280;10381;53.730;10.010;2023-05-16T00:11:38;100839.50;;;9.22;100.00
20444;BME280;10381;53.730;10.010;2023-05-16T00:15:38;100834.41;;;9.30;100.00
20444;BME280;10381;53.730;10.010;2023-05-16T00:19:39;100838.41;;;9.24;100.00
20444;BME280;10381;53.730;10.010;2023-05-16T00:23:41;100838.63;;;9.21;100.00
20444;BME280;10381;53.730;10.010;2023-05-16T00:27:41;100839.38;;;9.23;100.00
20444;BME280;10381;53.730;10.010;2023-05-16T00:31:41;100847.19;;;9.25;100.00
20444;BME280;10381;53.730;10.010;2023-05-16T00:35:41;100853.03;;;9.28;100.00
20444;BME280;10381;53.730;10.010;2023-05-16T00:39:42;100844.16;;;9.29;100.00
20444;BME280;10381;53.730;10.010;2023-05-16T00:43:42;100848.94;;;9.35;100.00
20444;BME280;10381;53.730;10.010;2023-05-16T00:47:42;100845.44;;;9.35;100.00
20444;BME280;10381;53.730;10.010;2023-05-16T00:51:42;100842.56;;;9.38;100.00
20444;BME280;10381;53.730;10.010;2023-05-16T00:55:44;100845.78;;;9.42;100.00
20444;BME280;10381;53.730;10.010;2023-05-16T00:59:47;100848.88;;;9.47;100.00
20444;BME280;10381;53.730;10.010;2023-05-16T01:03:48;100846.25;;;9.47;100.00
20444;BME280;10381;53.730;10.010;2023-05-16T01:07:48;100859.22;;;9.50;100.00
20444;BME280;10381;53.730;10.010;2023-05-16T01:12:23;100845.88;;;9.51;100.00
20444;BME280;10381;53.730;10.010;2023-05-16T01:16:35;100851.28;;;9.50;100.00
20444;BME280;10381;53.730;10.010;2023-05-16T01:29:19;100858.81;;;9.54;100.00
20444;BME280;10381;53.730;10.010;2023-05-16T01:33:20;100864.75;;;9.47;100.00
20444;BME280;10381;53.730;10.010;2023-05-16T01:37:24;100862.81;;;9.49;100.00
20444;BME280;10381;53.730;10.010;2023-05-16T01:45:43;100879.00;;;9.34;100.00
20444;BME280;10381;53.730;10.010;2023-05-16T01:50:14;100873.81;;;9.33;100.00
20444;BME280;10381;53.730;10.010;2023-05-16T01:54:17;100873.63;;;9.25;100.00
20444;BME280;10381;53.730;10.010;2023-05-16T01:58:22;100876.38;;;9.23;100.00
20444;BME280;10381;53.730;10.010;2023-05-16T02:02:24;100876.97;;;9.27;100.00
20444;BME280;10381;53.730;10.010;2023-05-16T02:06:24;100885.28;;;9.22;100.00
20444;BME280;10381;53.730;10.010;2023-05-16T02:10:27;100882.38;;;9.25;100.00
20444;BME280;10381;53.730;10.010;2023-05-16T02:14:28;100878.78;;;9.26;100.00
20444;BME280;10381;53.730;10.010;2023-05-16T02:18:28;100878.91;;;9.25;100.00
20444;BME280;10381;53.730;10.010;2023-05-16T02:22:28;100871.81;;;9.25;100.00
20444;BME280;10381;53.730;10.010;2023-05-16T02:26:29;100869.16;;;9.25;100.00
20444;BME280;10381;53.730;10.010;2023-05-16T02:30:29;100874.97;;;9.19;100.00
20444;BME280;10381;53.730;10.010;2023-05-16T02:34:29;100871.00;;;9.13;100.00
20444;BME280;10381;53.730;10.010;2023-05-16T02:38:29;100873.53;;;9.15;100.00
20444;BME280;10381;53.730;10.010;2023-05-16T02:42:30;100868.59;;;9.10;100.00
20444;BME280;10381;53.730;10.010;2023-05-16T02:46:33;100868.84;;;9.07;100.00
20444;BME280;10381;53.730;10.010;2023-05-16T02:50:33;100871.34;;;9.09;100.00
20444;BME280;10381;53.730;10.010;2023-05-16T02:54:34;100876.19;;;9.04;100.00
20444;BME280;10381;53.730;10.010;2023-05-16T02:58:34;100877.88;;;9.05;100.00
20444;BME280;10381;53.730;10.010;2023-05-16T03:02:35;100887.59;;;9.04;100.00
20444;BME280;10381;53.730;10.010;2023-05-16T03:06:35;100890.84;;;8.96;100.00
20444;BME280;10381;53.730;10.010;2023-05-16T03:10:35;100891.00;;;8.95;100.00
20444;BME280;10381;53.730;10.010;2023-05-16T03:14:35;100904.56;;;8.90;100.00
20444;BME280;10381;53.730;10.010;2023-05-16T03:18:36;100906.47;;;8.88;100.00
20444;BME280;10381;53.730;10.010;2023-05-16T03:22:36;100914.41;;;8.88;100.00
20444;BME280;10381;53.730;10.010;2023-05-16T03:26:36;100916.31;;;8.86;100.00
20444;BME280;10381;53.730;10.010;2023-05-16T03:30:37;100922.09;;;8.80;100.00
20444;BME280;10381;53.730;10.010;2023-05-16T03:34:37;100915.38;;;8.76;100.00
20444;BME280;10381;53.730;10.010;2023-05-16T03:38:37;100927.88;;;8.74;100.00
20444;BME280;10381;53.730;10.010;2023-05-16T03:42:38;100925.47;;;8.71;100.00
20444;BME280;10381;53.730;10.010;2023-05-16T03:46:38;100933.41;;;8.71;100.00
20444;BME280;10381;53.730;10.010;2023-05-16T03:50:38;100931.59;;;8.71;100.00
20444;BME280;10381;53.730;10.010;2023-05-16T03:54:38;100928.81;;;8.73;100.00
20444;BME280;10381;53.730;10.010;2023-05-16T03:58:39;100930.50;;;8.74;100.00
20444;BME280;10381;53.730;10.010;2023-05-16T04:02:39;100929.53;;;8.75;100.00
20444;BME280;10381;53.730;10.010;2023-05-16T04:06:39;100934.72;;;8.77;100.00
20444;BME280;10381;53.730;10.010;2023-05-16T04:10:40;100939.38;;;8.73;100.00
20444;BME280;10381;53.730;10.010;2023-05-16T04:14:40;100947.28;;;8.73;100.00
20444;BME280;10381;53.730;10.010;2023-05-16T04:18:40;100942.16;;;8.71;100.00
20444;BME280;10381;53.730;10.010;2023-05-16T04:22:41;100943.97;;;8.71;100.00
20444;BME280;10381;53.730;10.010;2023-05-16T04:26:41;100959.56;;;8.74;100.00
20444;BME280;10381;53.730;10.010;2023-05-16T04:30:41;100961.59;;;8.82;100.00
20444;BME280;10381;53.730;10.010;2023-05-16T04:34:42;100960.50;;;8.84;100.00
20444;BME280;10381;53.730;10.010;2023-05-16T04:38:43;100967.97;;;8.90;100.00
20444;BME280;10381;53.730;10.010;2023-05-16T04:42:45;100968.19;;;8.87;100.00
20444;BME280;10381;53.730;10.010;2023-05-16T04:46:46;100970.97;;;8.86;100.00
20444;BME280;10381;53.730;10.010;2023-05-16T04:50:46;100966.66;;;8.73;100.00
20444;BME280;10381;53.730;10.010;2023-05-16T04:54:49;100985.00;;;8.75;100.00
20444;BME280;10381;53.730;10.010;2023-05-16T04:58:50;100984.53;;;8.70;100.00
20444;BME280;10381;53.730;10.010;2023-05-16T05:02:50;100989.81;;;8.70;100.00
20444;BME280;10381;53.730;10.010;2023-05-16T05:06:50;100989.69;;;8.60;100.00
20444;BME280;10381;53.730;10.010;2023-05-16T05:10:50;100986.44;;;8.57;100.00
20444;BME280;10381;53.730;10.010;2023-05-16T05:14:51;101000.47;;;8.57;100.00
20444;BME280;10381;53.730;10.010;2023-05-16T05:18:51;101002.06;;;8.71;100.00
20444;BME280;10381;53.730;10.010;2023-05-16T05:22:51;101007.25;;;8.84;100.00
20444;BME280;10381;53.730;10.010;2023-05-16T05:26:52;101019.88;;;9.14;100.00
20444;BME280;10381;53.730;10.010;2023-05-16T05:30:52;101016.09;;;9.50;100.00
20444;BME280;10381;53.730;10.010;2023-05-16T05:34:52;101013.94;;;9.55;100.00
20444;BME280;10381;53.730;10.010;2023-05-16T05:38:52;101018.75;;;9.94;100.00
20444;BME280;10381;53.730;10.010;2023-05-16T05:42:53;101022.16;;;9.85;100.00
20444;BME280;10381;53.730;10.010;2023-05-16T05:46:53;101015.94;;;9.63;100.00
20444;BME280;10381;53.730;10.010;2023-05-16T05:50:54;101029.69;;;9.23;100.00
20444;BME280;10381;53.730;10.010;2023-05-16T05:54:54;101018.94;;;10.02;100.00
20444;BME280;10381;53.730;10.010;2023-05-16T05:58:55;101030.75;;;9.98;100.00
20444;BME280;10381;53.730;10.010;2023-05-16T06:02:55;101035.09;;;9.33;100.00
20444;BME280;10381;53.730;10.010;2023-05-16T06:06:56;101050.97;;;9.44;100.00
20444;BME280;10381;53.730;10.010;2023-05-16T06:10:56;101043.75;;;9.57;100.00
20444;BME280;10381;53.730;10.010;2023-05-16T06:14:56;101034.09;;;10.11;100.00
20444;BME280;10381;53.730;10.010;2023-05-16T06:18:57;101044.38;;;10.26;100.00
20444;BME280;10381;53.730;10.010;2023-05-16T06:22:57;101047.31;;;9.79;100.00
20444;BME280;10381;53.730;10.010;2023-05-16T06:26:57;101058.53;;;10.03;100.00
20444;BME280;10381;53.730;10.010;2023-05-16T06:30:57;101058.22;;;9.86;100.00
20444;BME280;10381;53.730;10.010;2023-05-16T06:34:58;101054.53;;;9.66;100.00
20444;BME280;10381;53.730;10.010;2023-05-16T06:38:58;101053.38;;;10.02;100.00
20444;BME280;10381;53.730;10.010;2023-05-16T06:42:58;101062.03;;;10.04;100.00
20444;BME280;10381;53.730;10.010;2023-05-16T06:46:59;101064.94;;;10.65;100.00
20444;BME280;10381;53.730;10.010;2023-05-16T06:51:09;101071.28;;;10.63;100.00
20444;BME280;10381;53.730;10.010;2023-05-16T06:55:10;101080.59;;;10.57;100.00
20444;BME280;10381;53.730;10.010;2023-05-16T06:59:10;101087.44;;;9.95;100.00
20444;BME280;10381;53.730;10.010;2023-05-16T07:03:10;101081.00;;;9.77;100.00
20444;BME280;10381;53.730;10.010;2023-05-16T07:07:10;101087.53;;;10.05;100.00
20444;BME280;10381;53.730;10.010;2023-05-16T07:11:11;101095.22;;;10.08;100.00
20444;BME280;10381;53.730;10.010;2023-05-16T07:15:11;101088.69;;;10.56;100.00
20444;BME280;10381;53.730;10.010;2023-05-16T07:19:12;101099.56;;;10.74;100.00
20444;BME280;10381;53.730;10.010;2023-05-16T07:23:12;101090.00;;;10.61;100.00
20444;BME280;10381;53.730;10.010;2023-05-16T07:27:13;101095.16;;;11.05;100.00
20444;BME280;10381;53.730;10.010;2023-05-16T07:31:13;101108.38;;;11.26;100.00
20444;BME280;10381;53.730;10.010;2023-05-16T07:35:13;101118.47;;;10.48;100.00
20444;BME280;10381;53.730;10.010;2023-05-16T07:39:13;101119.19;;;9.95;100.00
20444;BME280;10381;53.730;10.010;2023-05-16T07:43:14;101108.53;;;10.61;100.00
20444;BME280;10381;53.730;10.010;2023-05-16T07:47:14;101111.06;;;11.05;100.00
20444;BME280;10381;53.730;10.010;2023-05-16T07:51:15;101121.88;;;11.23;100.00
20444;BME280;10381;53.730;10.010;2023-05-16T07:55:15;101104.78;;;11.06;100.00
20444;BME280;10381;53.730;10.010;2023-05-16T07:59:15;101101.06;;;10.87;100.00
20444;BME280;10381;53.730;10.010;2023-05-16T08:03:16;101108.09;;;10.56;100.00
20444;BME280;10381;53.730;10.010;2023-05-16T08:07:16;101116.03;;;10.77;100.00
20444;BME280;10381;53.730;10.010;2023-05-16T08:11:18;101117.53;;;10.91;100.00
20444;BME280;10381;53.730;10.010;2023-05-16T08:15:18;101121.47;;;11.48;100.00
20444;BME280;10381;53.730;10.010;2023-05-16T08:19:18;101133.31;;;11.85;100.00
20444;BME280;10381;53.730;10.010;2023-05-16T08:23:19;101134.84;;;12.28;100.00
20444;BME280;10381;53.730;10.010;2023-05-16T08:27:20;101149.13;;;11.86;100.00
20444;BME280;10381;53.730;10.010;2023-05-16T08:31:20;101131.75;;;11.72;100.00
20444;BME280;10381;53.730;10.010;2023-05-16T08:35:20;101137.56;;;11.66;100.00
20444;BME280;10381;53.730;10.010;2023-05-16T08:39:21;101119.00;;;12.17;100.00
20444;BME280;10381;53.730;10.010;2023-05-16T08:43:21;101128.56;;;12.48;96.06
20444;BME280;10381;53.730;10.010;2023-05-16T08:47:23;101124.34;;;12.46;91.71
20444;BME280;10381;53.730;10.010;2023-05-16T08:51:26;101133.03;;;12.38;94.11
20444;BME280;10381;53.730;10.010;2023-05-16T08:55:27;101128.69;;;12.47;92.96
20444;BME280;10381;53.730;10.010;2023-05-16T08:59:27;101141.00;;;12.67;92.17
20444;BME280;10381;53.730;10.010;2023-05-16T09:03:28;101140.44;;;12.34;100.00
20444;BME280;10381;53.730;10.010;2023-05-16T09:07:28;101144.47;;;11.38;100.00
20444;BME280;10381;53.730;10.010;2023-05-16T09:11:28;101135.50;;;12.01;100.00
20444;BME280;10381;53.730;10.010;2023-05-16T09:15:32;101137.03;;;13.10;96.86
20444;BME280;10381;53.730;10.010;2023-05-16T09:19:42;101137.00;;;13.30;89.41
20444;BME280;10381;53.730;10.010;2023-05-16T09:23:43;101136.22;;;13.00;96.19
20444;BME280;10381;53.730;10.010;2023-05-16T09:27:47;101149.09;;;14.17;90.72
20444;BME280;10381;53.730;10.010;2023-05-16T09:31:48;101160.06;;;13.49;86.97
20444;BME280;10381;53.730;10.010;2023-05-16T09:35:59;101153.13;;;12.11;100.00
20444;BME280;10381;53.730;10.010;2023-05-16T09:39:59;101153.56;;;11.76;100.00
20444;BME280;10381;53.730;10.010;2023-05-16T09:44:03;101138.91;;;12.32;100.00
20444;BME280;10381;53.730;10.010;2023-05-16T09:48:07;101142.50;;;12.21;96.70
20444;BME280;10381;53.730;10.010;2023-05-16T09:52:08;101152.44;;;12.39;83.49
20444;BME280;10381;53.730;10.010;2023-05-16T09:56:13;101163.47;;;13.21;84.42
20444;BME280;10381;53.730;10.010;2023-05-16T10:00:14;101171.31;;;13.23;82.56
20444;BME280;10381;53.730;10.010;2023-05-16T10:04:14;101159.56;;;13.26;76.76
20444;BME280;10381;53.730;10.010;2023-05-16T10:08:15;101174.00;;;13.70;71.34
20444;BME280;10381;53.730;10.010;2023-05-16T10:12:16;101158.31;;;14.22;71.50
20444;BME280;10381;53.730;10.010;2023-05-16T10:16:17;101161.81;;;13.30;74.37
20444;BME280;10381;53.730;10.010;2023-05-16T10:20:19;101161.59;;;12.85;81.06
20444;BME280;10381;53.730;10.010;2023-05-16T10:24:30;101144.16;;;13.29;88.45
20444;BME280;10381;53.730;10.010;2023-05-16T10:28:36;101152.19;;;13.57;78.56
20444;BME280;10381;53.730;10.010;2023-05-16T10:32:37;101139.31;;;12.86;85.99
20444;BME280;10381;53.730;10.010;2023-05-16T10:36:39;101144.19;;;13.00;84.94
20444;BME280;10381;53.730;10.010;2023-05-16T10:40:39;101141.84;;;12.87;82.29
20444;BME280;10381;53.730;10.010;2023-05-16T10:44:40;101168.28;;;12.40;75.40
20444;BME280;10381;53.730;10.010;2023-05-16T10:48:41;101178.81;;;12.01;74.09
20444;BME280;10381;53.730;10.010;2023-05-16T10:52:41;101159.94;;;11.94;79.31
20444;BME280;10381;53.730;10.010;2023-05-16T10:56:41;101159.72;;;13.14;78.52
20444;BME280;10381;53.730;10.010;2023-05-16T11:00:42;101145.78;;;13.50;78.41
20444;BME280;10381;53.730;10.010;2023-05-16T11:04:50;101167.78;;;13.42;75.54
20444;BME280;10381;53.730;10.010;2023-05-16T11:13:06;101163.84;;;14.75;72.54
20444;BME280;10381;53.730;10.010;2023-05-16T11:21:07;101151.94;;;13.50;77.65
20444;BME280;10381;53.730;10.010;2023-05-16T11:25:08;101163.06;;;13.16;71.50
20444;BME280;10381;53.730;10.010;2023-05-16T11:29:09;101178.91;;;12.50;72.78
20444;BME280;10381;53.730;10.010;2023-05-16T11:33:10;101180.31;;;12.34;77.63
20444;BME280;10381;53.730;10.010;2023-05-16T11:37:11;101161.31;;;12.68;73.14
20444;BME280;10381;53.730;10.010;2023-05-16T11:41:12;101162.69;;;13.58;74.00
20444;BME280;10381;53.730;10.010;2023-05-16T11:45:16;101180.13;;;14.26;72.51
20444;BME280;10381;53.730;10.010;2023-05-16T11:49:17;101180.44;;;14.23;75.03
20444;BME280;10381;53.730;10.010;2023-05-16T11:53:17;101173.38;;;13.86;74.20
20444;BME280;10381;53.730;10.010;2023-05-16T11:57:19;101187.00;;;13.73;76.16
20444;BME280;10381;53.730;10.010;2023-05-16T12:01:20;101199.34;;;13.08;77.82
20444;BME280;10381;53.730;10.010;2023-05-16T12:05:21;101199.34;;;13.27;78.41
20444;BME280;10381;53.730;10.010;2023-05-16T12:09:26;101223.16;;;12.99;73.94
20444;BME280;10381;53.730;10.010;2023-05-16T12:13:26;101211.09;;;12.66;77.83
20444;BME280;10381;53.730;10.010;2023-05-16T12:17:27;101215.94;;;12.32;87.43
20444;BME280;10381;53.730;10.010;2023-05-16T12:21:27;101187.25;;;12.16;100.00
20444;BME280;10381;53.730;10.010;2023-05-16T12:25:29;101220.00;;;12.46;100.00
20444;BME280;10381;53.730;10.010;2023-05-16T12:29:30;101204.94;;;12.56;100.00
20444;BME280;10381;53.730;10.010;2023-05-16T12:33:35;101215.56;;;12.56;100.00
20444;BME280;10381;53.730;10.010;2023-05-16T12:37:36;101220.06;;;13.04;100.00
20444;BME280;10381;53.730;10.010;2023-05-16T12:41:39;101224.06;;;13.94;94.23
20444;BME280;10381;53.730;10.010;2023-05-16T12:45:41;101256.06;;;13.84;99.30
20444;BME280;10381;53.730;10.010;2023-05-16T12:49:46;101264.75;;;10.95;100.00
20444;BME280;10381;53.730;10.010;2023-05-16T12:53:48;101249.97;;;10.38;100.00
20444;BME280;10381;53.730;10.010;2023-05-16T12:57:49;101268.13;;;11.18;100.00
20444;BME280;10381;53.730;10.010;2023-05-16T13:01:50;101229.31;;;10.96;100.00
20444;BME280;10381;53.730;10.010;2023-05-16T13:05:50;101236.38;;;11.49;100.00
20444;BME280;10381;53.730;10.010;2023-05-16T13:09:51;101238.41;;;12.18;100.00
20444;BME280;10381;53.730;10.010;2023-05-16T13:13:52;101251.97;;;12.65;100.00
20444;BME280;10381;53.730;10.010;2023-05-16T13:17:52;101264.56;;;12.73;100.00
20444;BME280;10381;53.730;10.010;2023-05-16T13:21:52;101264.69;;;12.71;100.00
20444;BME280;10381;53.730;10.010;2023-05-16T13:25:53;101251.28;;;12.83;100.00
20444;BME280;10381;53.730;10.010;2023-05-16T13:29:53;101255.22;;;12.28;100.00
20444;BME280;10381;53.730;10.010;2023-05-16T13:33:53;101254.84;;;11.71;100.00
20444;BME280;10381;53.730;10.010;2023-05-16T13:37:53;101250.25;;;11.52;100.00
20444;BME280;10381;53.730;10.010;2023-05-16T13:41:54;101236.44;;;12.10;100.00
20444;BME280;10381;53.730;10.010;2023-05-16T13:45:54;101231.63;;;11.94;100.00
20444;BME280;10381;53.730;10.010;2023-05-16T13:49:55;101232.59;;;12.34;100.00
20444;BME280;10381;53.730;10.010;2023-05-16T13:53:55;101226.78;;;12.89;100.00
20444;BME280;10381;53.730;10.010;2023-05-16T13:57:56;101242.72;;;12.69;100.00
20444;BME280;10381;53.730;10.010;2023-05-16T14:01:56;101238.75;;;12.34;100.00
20444;BME280;10381;53.730;10.010;2023-05-16T14:05:56;101248.06;;;12.98;100.00
20444;BME280;10381;53.730;10.010;2023-05-16T14:09:56;101245.44;;;13.28;100.00
20444;BME280;10381;53.730;10.010;2023-05-16T14:13:57;101269.59;;;13.54;96.12
20444;BME280;10381;53.730;10.010;2023-05-16T14:17:57;101268.75;;;12.15;100.00
20444;BME280;10381;53.730;10.010;2023-05-16T14:21:58;101304.13;;;11.32;100.00
20444;BME280;10381;53.730;10.010;2023-05-16T14:25:58;101294.44;;;11.21;100.00
20444;BME280;10381;53.730;10.010;2023-05-16T14:29:59;101287.59;;;9.27;100.00
20444;BME280;10381;53.730;10.010;2023-05-16T14:33:59;101290.56;;;9.47;100.00
20444;BME280;10381;53.730;10.010;2023-05-16T14:37:59;101299.34;;;9.58;100.00
20444;BME280;10381;53.730;10.010;2023-05-16T14:41:59;101295.19;;;9.67;100.00
20444;BME280;10381;53.730;10.010;2023-05-16T14:46:00;101272.44;;;10.98;100.00
20444;BME280;10381;53.730;10.010;2023-05-16T14:50:00;101269.75;;;11.09;100.00
20444;BME280;10381;53.730;10.010;2023-05-16T14:54:01;101247.06;;;12.10;100.00
20444;BME280;10381;53.730;10.010;2023-05-16T14:58:01;101247.56;;;12.45;100.00
20444;BME280;10381;53.730;10.010;2023-05-16T15:02:01;101266.13;;;12.95;100.00
20444;BME280;10381;53.730;10.010;2023-05-16T15:06:02;101299.06;;;13.33;100.00
20444;BME280;10381;53.730;10.010;2023-05-16T15:10:04;101279.28;;;12.96;100.00
20444;BME280;10381;53.730;10.010;2023-05-16T15:14:05;101298.19;;;13.42;100.00
20444;BME280;10381;53.730;10.010;2023-05-16T15:18:06;101281.63;;;13.68;100.00
20444;BME280;10381;53.730;10.010;2023-05-16T15:22:06;101281.66;;;13.48;100.00
20444;BME280;10381;53.730;10.010;2023-05-16T15:26:07;101276.88;;;12.84;100.00
20444;BME280;10381;53.730;10.010;2023-05-16T15:30:08;101274.13;;;12.35;100.00
20444;BME280;10381;53.730;10.010;2023-05-16T15:34:08;101266.22;;;10.88;100.00
20444;BME280;10381;53.730;10.010;2023-05-16T15:38:09;101353.88;;;9.13;100.00
20444;BME280;10381;53.730;10.010;2023-05-16T15:42:10;101404.88;;;8.52;100.00
20444;BME280;10381;53.730;10.010;2023-05-16T15:46:10;101427.41;;;9.56;100.00
20444;BME280;10381;53.730;10.010;2023-05-16T15:50:10;101409.78;;;10.14;100.00
20444;BME280;10381;53.730;10.010;2023-05-16T15:54:12;101380.44;;;12.14;100.00
20444;BME280;10381;53.730;10.010;2023-05-16T15:58:12;101373.72;;;11.36;100.00
20444;BME280;10381;53.730;10.010;2023-05-16T16:02:13;101392.50;;;12.49;100.00
20444;BME280;10381;53.730;10.010;2023-05-16T16:06:13;101382.00;;;10.99;100.00
20444;BME280;10381;53.730;10.010;2023-05-16T16:10:13;101388.25;;;11.09;100.00
20444;BME280;10381;53.730;10.010;2023-05-16T16:14:14;101424.16;;;13.52;100.00
20444;BME280;10381;53.730;10.010;2023-05-16T16:18:14;101447.47;;;14.56;100.00
20444;BME280;10381;53.730;10.010;2023-05-16T16:22:15;101425.41;;;13.68;100.00
20444;BME280;10381;53.730;10.010;2023-05-16T16:26:15;101315.75;;;12.65;100.00
20444;BME280;10381;53.730;10.010;2023-05-16T16:30:16;101285.34;;;12.08;100.00
20444;BME280;10381;53.730;10.010;2023-05-16T16:34:16;101277.03;;;11.49;100.00
20444;BME280;10381;53.730;10.010;2023-05-16T16:38:17;101260.09;;;11.62;100.00
20444;BME280;10381;53.730;10.010;2023-05-16T16:42:18;101280.88;;;12.08;100.00
20444;BME280;10381;53.730;10.010;2023-05-16T16:46:18;101279.47;;;10.88;100.00
20444;BME280;10381;53.730;10.010;2023-05-16T16:50:18;101278.22;;;10.71;100.00
20444;BME280;10381;53.730;10.010;2023-05-16T16:54:19;101287.31;;;10.35;100.00
20444;BME280;10381;53.730;10.010;2023-05-16T16:58:21;101436.94;;;8.98;100.00
20444;BME280;10381;53.730;10.010;2023-05-16T17:02:21;62062.31;;;-146.51;100.00
20444;BME280;10381;53.730;10.010;2023-05-16T17:06:21;101440.94;;;13.33;100.00
20444;BME280;10381;53.730;10.010;2023-05-16T17:10:22;62062.31;;;-146.51;100.00
20444;BME280;10381;53.730;10.010;2023-05-16T17:14:22;62062.31;;;-146.51;100.00
20444;BME280;10381;53.730;10.010;2023-05-16T17:19:21;62062.31;;;-146.51;100.00
20444;BME280;10381;53.730;10.010;2023-05-16T17:23:21;62062.31;;;-146.51;100.00
20444;BME280;10381;53.730;10.010;2023-05-16T17:27:22;62062.31;;;-146.51;100.00
20444;BME280;10381;53.730;10.010;2023-05-16T17:31:22;62062.31;;;-146.51;100.00
20444;BME280;10381;53.730;10.010;2023-05-16T17:35:22;62062.31;;;-146.51;100.00
20444;BME280;10381;53.730;10.010;2023-05-16T17:39:23;62062.31;;;-146.51;100.00
20444;BME280;10381;53.730;10.010;2023-05-16T17:43:23;62062.31;;;-146.51;100.00
20444;BME280;10381;53.730;10.010;2023-05-16T17:47:24;62062.31;;;-146.51;100.00
20444;BME280;10381;53.730;10.010;2023-05-16T17:51:25;62062.31;;;-146.51;100.00
20444;BME280;10381;53.730;10.010;2023-05-16T17:55:26;62062.31;;;-146.51;100.00
20444;BME280;10381;53.730;10.010;2023-05-16T17:59:26;62062.31;;;-146.51;100.00
20444;BME280;10381;53.730;10.010;2023-05-16T18:03:26;62062.31;;;-146.51;100.00
20444;BME280;10381;53.730;10.010;2023-05-16T18:07:27;62062.31;;;-146.51;100.00
20444;BME280;10381;53.730;10.010;2023-05-16T18:11:27;62062.31;;;-146.51;100.00
20444;BME280;10381;53.730;10.010;2023-05-16T18:15:28;62062.31;;;-146.51;100.00
20444;BME280;10381;53.730;10.010;2023-05-16T18:19:28;62062.31;;;-146.51;100.00
20444;BME280;10381;53.730;10.010;2023-05-16T18:23:30;101440.94;;;13.33;100.00
20444;BME280;10381;53.730;10.010;2023-05-16T18:27:31;62062.31;;;-146.51;100.00
20444;BME280;10381;53.730;10.010;2023-05-16T18:31:31;62062.31;;;-146.51;100.00
20444;BME280;10381;53.730;10.010;2023-05-16T18:35:33;62062.31;;;-146.51;100.00
20444;BME280;10381;53.730;10.010;2023-05-16T18:39:33;62062.31;;;-146.51;100.00
20444;BME280;10381;53.730;10.010;2023-05-16T18:43:34;62062.31;;;-146.51;100.00
20444;BME280;10381;53.730;10.010;2023-05-16T18:47:36;62062.31;;;-146.51;100.00
20444;BME280;10381;53.730;10.010;2023-05-16T18:51:37;62062.31;;;-146.51;100.00
20444;BME280;10381;53.730;10.010;2023-05-16T18:55:38;62062.31;;;-146.51;100.00
20444;BME280;10381;53.730;10.010;2023-05-16T18:59:39;62062.31;;;-146.51;100.00
20444;BME280;10381;53.730;10.010;2023-05-16T19:03:41;62062.31;;;-146.51;100.00
20444;BME280;10381;53.730;10.010;2023-05-16T19:07:42;62062.31;;;-146.51;100.00
20444;BME280;10381;53.730;10.010;2023-05-16T19:11:43;62062.31;;;-146.51;100.00
20444;BME280;10381;53.730;10.010;2023-05-16T19:15:45;62062.31;;;-146.51;100.00
20444;BME280;10381;53.730;10.010;2023-05-16T19:19:46;62062.31;;;-146.51;100.00
20444;BME280;10381;53.730;10.010;2023-05-16T19:23:47;62062.31;;;-146.51;100.00
20444;BME280;10381;53.730;10.010;2023-05-16T19:27:48;62062.31;;;-146.51;100.00
20444;BME280;10381;53.730;10.010;2023-05-16T19:31:49;62062.31;;;-146.51;100.00
20444;BME280;10381;53.730;10.010;2023-05-16T19:35:50;62062.31;;;-146.51;100.00
20444;BME280;10381;53.730;10.010;2023-05-16T19:39:53;62062.31;;;-146.51;100.00
20444;BME280;10381;53.730;10.010;2023-05-16T19:43:54;62062.31;;;-146.51;100.00
20444;BME280;10381;53.730;10.010;2023-05-16T19:47:55;62062.31;;;-146.51;100.00
20444;BME280;10381;53.730;10.010;2023-05-16T19:51:56;62062.31;;;-146.51;100.00
20444;BME280;10381;53.730;10.010;2023-05-16T19:56:09;62062.31;;;-146.51;100.00
20444;BME280;10381;53.730;10.010;2023-05-16T20:00:11;62062.31;;;-146.51;100.00
20444;BME280;10381;53.730;10.010;2023-05-16T20:04:14;62062.31;;;-146.51;100.00
20444;BME280;10381;53.730;10.010;2023-05-16T20:08:15;62062.31;;;-146.51;100.00
20444;BME280;10381;53.730;10.010;2023-05-16T20:12:19;62062.31;;;-146.51;100.00
20444;BME280;10381;53.730;10.010;2023-05-16T20:16:21;62062.31;;;-146.51;100.00
20444;BME280;10381;53.730;10.010;2023-05-16T20:20:21;62062.31;;;-146.51;100.00
20444;BME280;10381;53.730;10.010;2023-05-16T20:24:22;62062.31;;;-146.51;100.00
20444;BME280;10381;53.730;10.010;2023-05-16T20:28:22;62062.31;;;-146.51;100.00
20444;BME280;10381;53.730;10.010;2023-05-16T20:32:22;101477.91;;;12.02;100.00
20444;BME280;10381;53.730;10.010;2023-05-16T20:36:23;101477.31;;;12.10;100.00
20444;BME280;10381;53.730;10.010;2023-05-16T20:40:23;101482.78;;;11.97;100.00
20444;BME280;10381;53.730;10.010;2023-05-16T20:44:23;101473.78;;;12.51;100.00
20444;BME280;10381;53.730;10.010;2023-05-16T20:48:24;101480.72;;;12.01;100.00
20444;BME280;10381;53.730;10.010;2023-05-16T20:52:24;101483.38;;;12.22;100.00
20444;BME280;10381;53.730;10.010;2023-05-16T20:56:24;101475.88;;;12.27;100.00